Time;durP1;ratioP1;P1;durP2;ratioP2;P2;SDS_P1;SDS_P2;PMS_P1;PMS_P2;Temp;Humidity;BMP_temperature;BMP_pressure;BME280_temperature;BME280_humidity;BME280_pressure;Samples;Min_cycle;Max_cycle;Signal;HPM_P1;HPM_P2
2021/03/02 00:01:34;;;;;;;11.15;6.95;;;;;;;2.71;68.12;100988.97;4991370;28;20038;-71
2021/03/02 00:04:01;;;;;;;12.48;7.78;;;;;;;2.72;67.58;100990.69;4983206;28;20046;-70
2021/03/02 00:06:26;;;;;;;10.75;6.95;;;;;;;2.74;67.80;100991.56;4980655;28;20045;-73
2021/03/02 00:08:52;;;;;;;12.30;7.32;;;;;;;2.72;67.59;100993.28;4978393;28;20043;-71
2021/03/02 00:11:18;;;;;;;10.13;6.00;;;;;;;2.65;67.93;100991.53;4985170;28;20549;-70
2021/03/02 00:13:43;;;;;;;15.68;8.98;;;;;;;2.61;68.32;100991.50;4963283;28;20121;-72
2021/03/02 00:16:11;;;;;;;10.98;6.15;;;;;;;2.59;68.36;100991.53;4975091;28;20139;-70
2021/03/02 00:18:45;;;;;;;11.30;6.72;;;;;;;2.57;68.05;100996.72;4965119;28;20512;-70
2021/03/02 00:21:17;;;;;;;11.57;7.50;;;;;;;2.59;68.38;100991.53;4977099;28;20030;-70
2021/03/02 00:23:46;;;;;;;9.57;6.68;;;;;;;2.63;68.31;100989.78;4979918;28;20049;-70
2021/03/02 00:26:18;;;;;;;15.15;6.43;;;;;;;2.57;67.98;100985.44;4976830;28;20049;-70
2021/03/02 00:28:48;;;;;;;10.13;6.03;;;;;;;2.51;68.18;100990.63;4981794;28;20034;-70
2021/03/02 00:31:14;;;;;;;13.68;6.40;;;;;;;2.47;68.64;100991.50;4981578;28;20042;-70
2021/03/02 00:33:42;;;;;;;12.32;8.10;;;;;;;2.46;68.79;100992.34;4977673;28;20529;-70
2021/03/02 00:36:07;;;;;;;15.77;8.00;;;;;;;2.44;68.50;100987.16;4975951;28;20533;-70
2021/03/02 00:38:33;;;;;;;12.85;7.38;;;;;;;2.43;68.70;100994.94;4977334;28;20062;-70
2021/03/02 00:40:58;;;;;;;16.92;8.15;;;;;;;2.34;68.86;100991.44;4981279;28;20061;-70
2021/03/02 00:43:23;;;;;;;9.10;6.43;;;;;;;2.45;68.62;100988.00;4981316;28;20049;-49
2021/03/02 00:45:49;;;;;;;10.27;6.72;;;;;;;2.72;67.48;100989.81;4984730;28;20115;-49
2021/03/02 00:48:15;;;;;;;11.65;6.68;;;;;;;2.89;66.97;100987.25;4987949;28;20035;-70
2021/03/02 00:50:40;;;;;;;9.40;6.45;;;;;;;2.78;67.03;100990.72;4962325;28;20403;-70
2021/03/02 00:53:06;;;;;;;10.60;7.15;;;;;;;2.66;67.59;100989.78;4972074;28;20057;-71
2021/03/02 00:55:31;;;;;;;12.75;7.88;;;;;;;2.54;67.81;100988.91;4971845;28;20452;-71
2021/03/02 00:57:57;;;;;;;11.75;7.30;;;;;;;2.48;68.50;100995.81;4972407;28;20114;-70
2021/03/02 01:00:23;;;;;;;11.27;7.70;;;;;;;2.41;68.67;101001.84;4970843;28;20039;-70
2021/03/02 01:02:48;;;;;;;13.82;8.38;;;;;;;2.33;68.14;100997.50;4971329;28;20459;-70
2021/03/02 01:05:15;;;;;;;12.80;6.25;;;;;;;2.24;69.15;100999.19;4971720;28;20039;-70
2021/03/02 01:07:40;;;;;;;10.23;6.30;;;;;;;2.24;68.38;100997.47;4974363;28;20031;-70
2021/03/02 01:10:07;;;;;;;11.25;6.20;;;;;;;2.23;68.53;101000.94;4978771;28;20061;-70
2021/03/02 01:12:33;;;;;;;9.50;6.18;;;;;;;2.17;68.75;100998.31;4952676;28;20050;-70
2021/03/02 01:15:00;;;;;;;14.27;6.72;;;;;;;2.12;69.58;100997.41;4965023;28;20030;-69
2021/03/02 01:17:25;;;;;;;10.75;7.10;;;;;;;2.09;69.26;100998.28;4991187;28;20066;-70
2021/03/02 01:19:51;;;;;;;13.27;6.75;;;;;;;2.06;69.26;100999.97;4991664;28;20038;-71
2021/03/02 01:22:18;;;;;;;11.80;7.40;;;;;;;2.03;69.02;101003.44;4992087;28;20514;-71
2021/03/02 01:24:43;;;;;;;12.30;8.18;;;;;;;1.98;70.33;101005.13;4974199;28;20486;-70
2021/03/02 01:27:09;;;;;;;12.75;7.65;;;;;;;1.93;69.94;100999.03;4991418;28;20069;-70
2021/03/02 01:29:34;;;;;;;11.07;6.85;;;;;;;1.93;70.52;100999.03;4991320;28;20042;-71
2021/03/02 01:32:00;;;;;;;12.25;8.00;;;;;;;1.90;69.95;100996.44;4991111;28;20030;-70
2021/03/02 01:34:25;;;;;;;10.57;6.18;;;;;;;1.89;70.17;100995.53;4991115;28;20045;-70
2021/03/02 01:36:51;;;;;;;11.48;7.55;;;;;;;1.93;70.37;100994.72;4990911;28;20034;-71
2021/03/02 01:39:17;;;;;;;11.05;8.32;;;;;;;1.93;69.77;100996.44;4990476;28;20114;-71
2021/03/02 01:41:53;;;;;;;12.48;8.07;;;;;;;1.83;70.24;100992.91;4990640;28;20113;-71
2021/03/02 01:44:18;;;;;;;;;;;;;;;1.75;70.54;100989.41;4973623;28;20128;-70
2021/03/02 01:46:44;;;;;;;12.33;7.00;;;;;;;1.72;70.83;100991.97;4990405;28;20716;-69
2021/03/02 01:49:09;;;;;;;13.85;8.38;;;;;;;1.68;71.05;100991.09;4990517;28;20046;-70
2021/03/02 01:51:35;;;;;;;12.95;7.43;;;;;;;1.67;71.02;100994.56;4954976;28;20106;-70
2021/03/02 01:54:01;;;;;;;16.27;8.70;;;;;;;1.68;71.00;100985.03;4950735;28;20058;-70
2021/03/02 01:56:26;;;;;;;11.65;8.10;;;;;;;1.65;71.67;100990.19;4951944;28;20073;-70
2021/03/02 01:58:52;;;;;;;15.32;8.68;;;;;;;1.61;71.15;100997.13;4952105;28;20396;-69
2021/03/02 02:01:18;;;;;;;14.50;8.18;;;;;;;1.58;71.19;100991.91;4934650;28;20039;-70
2021/03/02 02:04:08;;;;;;;12.65;7.03;;;;;;;1.59;71.53;100988.44;4951615;28;20565;-70
2021/03/02 02:06:55;;;;;;;10.82;6.65;;;;;;;1.59;71.47;100992.75;4951923;28;20050;-70
2021/03/02 02:09:26;;;;;;;14.52;9.05;;;;;;;1.54;71.34;100984.94;4953391;28;20054;-69
2021/03/02 02:12:17;;;;;;;10.25;6.90;;;;;;;1.53;71.16;100982.31;4963234;28;20059;-70
2021/03/02 02:14:45;;;;;;;10.07;6.93;;;;;;;1.49;71.84;100987.50;4951346;28;20039;-69
2021/03/02 02:17:21;;;;;;;12.27;6.57;;;;;;;1.49;71.58;100984.03;4951718;28;20036;-70
2021/03/02 02:19:54;;;;;;;13.15;7.43;;;;;;;1.47;71.94;100985.75;4952455;28;20031;-70
2021/03/02 02:22:41;;;;;;;13.18;7.60;;;;;;;1.45;72.21;100980.56;4950647;28;20035;-69
2021/03/02 02:25:16;;;;;;;11.27;6.50;;;;;;;1.45;71.98;100990.06;4972147;28;20035;-70
2021/03/02 02:27:43;;;;;;;14.10;6.40;;;;;;;1.45;71.73;100977.97;4971363;28;20046;-69
2021/03/02 02:30:10;;;;;;;12.70;6.53;;;;;;;1.46;71.86;100977.09;4970456;28;20177;-69
2021/03/02 02:32:38;;;;;;;12.50;7.85;;;;;;;1.44;71.54;100975.34;4970600;28;20499;-69
2021/03/02 02:35:04;;;;;;;15.20;7.07;;;;;;;1.40;71.73;100971.81;4982029;28;20045;-70
2021/03/02 02:37:32;;;;;;;17.88;8.50;;;;;;;1.39;72.08;100967.50;4970669;28;20514;-70
2021/03/02 02:39:59;;;;;;;14.60;7.90;;;;;;;1.34;71.94;100966.59;4978047;28;20026;-70
2021/03/02 02:42:28;;;;;;;9.68;5.93;;;;;;;1.31;72.31;100965.72;4989698;28;20065;-70
2021/03/02 02:44:56;;;;;;;12.15;7.20;;;;;;;1.29;72.21;100961.38;4989591;28;20057;-70
2021/03/02 02:47:22;;;;;;;12.43;7.47;;;;;;;1.31;72.22;100956.19;4971977;28;20405;-71
2021/03/02 02:49:48;;;;;;;9.00;5.80;;;;;;;1.32;72.07;100960.53;4989738;28;20030;-69
2021/03/02 02:52:15;;;;;;;11.40;7.03;;;;;;;1.31;71.82;100951.00;4989839;28;20043;-69
2021/03/02 02:54:43;;;;;;;10.88;6.07;;;;;;;1.34;72.33;100956.22;4989564;28;20179;-70
2021/03/02 02:57:09;;;;;;;12.05;6.38;;;;;;;1.34;71.79;100953.63;4989504;28;20122;-70
2021/03/02 02:59:38;;;;;;;12.25;8.10;;;;;;;1.32;72.17;100952.72;4989605;28;20038;-70
2021/03/02 03:02:08;;;;;;;13.13;8.00;;;;;;;1.27;72.47;100950.09;4989495;28;20041;-70
2021/03/02 03:04:39;;;;;;;12.45;8.02;;;;;;;1.24;72.65;100955.28;4989363;28;20089;-70
2021/03/02 03:07:08;;;;;;;12.50;7.80;;;;;;;1.24;72.77;100951.81;4989864;28;20112;-71
2021/03/02 03:09:35;;;;;;;13.27;6.97;;;;;;;1.21;72.59;100952.66;4990006;28;20066;-70
2021/03/02 03:12:02;;;;;;;9.25;5.70;;;;;;;1.17;72.74;100952.63;4989550;28;20030;-70
2021/03/02 03:14:29;;;;;;;14.48;7.57;;;;;;;1.12;72.69;100959.50;4989528;28;20045;-70
2021/03/02 03:16:57;;;;;;;13.05;7.45;;;;;;;1.17;73.13;100958.69;4989882;28;20054;-71
2021/03/02 03:19:27;;;;;;;12.85;8.57;;;;;;;1.13;73.03;100959.50;4989182;28;20042;-69
2021/03/02 03:21:53;;;;;;;12.30;6.47;;;;;;;1.14;73.00;100952.59;4989203;28;20050;-70
2021/03/02 03:24:21;;;;;;;14.65;7.13;;;;;;;1.21;72.12;100962.19;4989939;28;20092;-70
2021/03/02 03:26:49;;;;;;;12.90;8.30;;;;;;;1.22;72.01;100956.13;4983484;28;20038;-71
2021/03/02 03:29:16;;;;;;;11.05;7.35;;;;;;;1.19;72.13;100956.97;4992904;28;20043;-70
2021/03/02 03:31:44;;;;;;;9.95;6.32;;;;;;;1.22;72.30;100953.53;4977165;28;20113;-69
2021/03/02 03:34:10;;;;;;;14.45;7.82;;;;;;;1.17;72.56;100947.44;4973760;28;20058;-69
2021/03/02 03:36:36;;;;;;;12.63;8.45;;;;;;;1.06;72.64;100948.22;4973920;28;20422;-70
2021/03/02 03:39:02;;;;;;;11.88;6.55;;;;;;;1.05;73.46;100950.78;4973886;28;20086;-70
2021/03/02 03:41:28;;;;;;;9.38;5.75;;;;;;;1.03;73.12;100948.19;4973843;28;20631;-70
2021/03/02 03:43:53;;;;;;;12.32;6.35;;;;;;;1.05;73.00;100950.78;4989572;28;20030;-70
2021/03/02 03:46:19;;;;;;;11.05;7.28;;;;;;;1.02;73.30;100950.78;4992879;28;20093;-69
2021/03/02 03:48:44;;;;;;;18.02;8.13;;;;;;;1.05;73.38;100954.25;4992069;28;20038;-70
2021/03/02 03:51:10;;;;;;;19.13;9.70;;;;;;;1.07;72.53;100957.72;4956407;28;20046;-69
2021/03/02 03:53:38;;;;;;;14.18;8.10;;;;;;;1.06;72.71;100956.00;4954619;28;20028;-70
2021/03/02 03:56:05;;;;;;;13.77;7.60;;;;;;;1.00;73.12;100949.88;4953945;28;20130;-70
2021/03/02 03:58:31;;;;;;;13.60;8.38;;;;;;;0.96;72.96;100954.19;4953876;28;20039;-70
2021/03/02 04:01:01;;;;;;;13.25;7.57;;;;;;;0.98;73.53;100949.84;4954335;28;20039;-70
2021/03/02 04:03:29;;;;;;;13.27;7.78;;;;;;;1.00;73.61;100949.88;4954741;28;20055;-70
2021/03/02 04:05:55;;;;;;;12.23;6.35;;;;;;;1.04;73.02;100952.53;4954464;28;20460;-69
2021/03/02 04:08:21;;;;;;;10.45;6.57;;;;;;;1.12;73.05;100956.91;4954667;28;20058;-69
2021/03/02 04:10:47;;;;;;;10.50;6.85;;;;;;;1.17;73.68;100963.00;4953570;28;20046;-69
2021/03/02 04:13:14;;;;;;;14.43;8.15;;;;;;;1.18;72.70;100954.34;4953906;28;21453;-70
2021/03/02 04:15:40;;;;;;;13.30;7.43;;;;;;;1.22;73.05;100958.72;4956312;28;20552;-70
2021/03/02 04:18:15;;;;;;;13.10;7.18;;;;;;;1.17;73.00;100957.81;4954066;28;20038;-70
2021/03/02 04:20:42;;;;;;;11.25;7.78;;;;;;;1.17;73.21;100963.88;4954040;28;20035;-71
2021/03/02 04:23:09;;;;;;;12.07;7.40;;;;;;;1.13;73.00;100956.03;4953903;28;20043;-69
2021/03/02 04:25:35;;;;;;;12.73;8.30;;;;;;;1.10;73.30;100950.81;4953385;28;20470;-70
2021/03/02 04:28:01;;;;;;;12.52;8.57;;;;;;;1.05;73.04;100958.56;4953103;28;20050;-70
2021/03/02 04:30:27;;;;;;;14.15;8.77;;;;;;;0.98;74.09;100951.59;4953393;28;20043;-70
2021/03/02 04:32:52;;;;;;;11.95;6.50;;;;;;;1.06;73.92;100949.94;4954032;28;20046;-69
2021/03/02 04:35:18;;;;;;;15.15;8.65;;;;;;;1.13;73.83;100956.03;4952795;28;20043;-71
2021/03/02 04:37:44;;;;;;;11.93;7.07;;;;;;;1.16;72.84;100950.91;4954218;28;20041;-71
2021/03/02 04:40:10;;;;;;;15.38;8.73;;;;;;;1.18;73.65;100954.34;4953644;28;20483;-71
2021/03/02 04:42:35;;;;;;;17.35;9.90;;;;;;;1.21;73.29;100954.41;4952972;28;20031;-71
2021/03/02 04:45:01;;;;;;;11.45;7.53;;;;;;;1.25;73.15;100957.00;4952933;28;20036;-72
2021/03/02 04:47:26;;;;;;;14.57;9.05;;;;;;;1.25;72.73;100957.00;4952707;28;20094;-71
2021/03/02 04:49:52;;;;;;;12.52;7.35;;;;;;;1.16;72.84;100950.91;4953473;28;20122;-71
2021/03/02 04:52:18;;;;;;;13.95;7.47;;;;;;;1.10;73.57;100959.47;4955919;28;20439;-71
2021/03/02 04:54:44;;;;;;;12.13;6.28;;;;;;;1.13;73.04;100958.63;4970952;28;20042;-71
2021/03/02 04:57:09;;;;;;;13.93;8.57;;;;;;;1.09;73.38;100955.16;4972010;28;20403;-72
2021/03/02 04:59:35;;;;;;;14.85;8.32;;;;;;;0.97;73.38;100957.66;4972340;28;20066;-71
2021/03/02 05:02:00;;;;;;;17.20;8.98;;;;;;;0.95;73.82;100951.56;4972194;28;20031;-72
2021/03/02 05:04:26;;;;;;;11.93;7.57;;;;;;;0.96;73.65;100949.00;4972231;28;20742;-72
2021/03/02 05:06:51;;;;;;;17.02;8.50;;;;;;;0.96;73.11;100951.59;4972380;28;20047;-71
2021/03/02 05:09:16;;;;;;;10.55;6.40;;;;;;;0.99;73.38;100940.38;4954499;28;20568;-71
2021/03/02 05:11:42;;;;;;;14.50;8.95;;;;;;;1.03;73.59;100943.00;4972140;28;20057;-70
2021/03/02 05:14:07;;;;;;;17.15;8.27;;;;;;;0.98;73.70;100941.19;4971793;28;20411;-70
2021/03/02 05:16:33;;;;;;;19.30;9.30;;;;;;;0.96;73.46;100946.41;4972068;28;20495;-71
2021/03/02 05:18:58;;;;;;;14.60;7.25;;;;;;;0.94;74.11;100948.09;4971185;28;20479;-70
2021/03/02 05:21:24;;;;;;;13.85;7.20;;;;;;;1.02;73.51;100949.03;4972549;28;20039;-70
2021/03/02 05:23:49;;;;;;;11.95;7.18;;;;;;;1.03;73.81;100947.31;4968808;28;20047;-71
2021/03/02 05:26:14;;;;;;;13.15;7.93;;;;;;;1.02;73.06;100948.16;4971445;28;20041;-71
2021/03/02 05:28:40;;;;;;;15.68;8.15;;;;;;;1.00;74.00;100949.88;4971792;28;20086;-71
2021/03/02 05:31:05;;;;;;;15.80;7.50;;;;;;;0.94;73.61;100949.84;4970932;28;20040;-71
2021/03/02 05:33:30;;;;;;;13.88;7.45;;;;;;;0.89;73.29;100942.00;4972116;28;20027;-71
2021/03/02 05:35:56;;;;;;;10.55;7.18;;;;;;;0.93;73.95;100948.94;4954258;28;20403;-72
2021/03/02 05:38:21;;;;;;;8.50;6.60;;;;;;;0.96;73.11;100950.69;4972845;28;20038;-71
2021/03/02 05:40:47;;;;;;;12.93;8.82;;;;;;;0.91;73.13;100944.59;4973526;28;20533;-71
2021/03/02 05:43:12;;;;;;;13.40;7.60;;;;;;;0.84;73.25;100947.16;4955795;28;20045;-70
2021/03/02 05:45:37;;;;;;;12.07;7.18;;;;;;;0.80;73.94;100944.50;4955370;28;20046;-71
2021/03/02 05:48:10;;;;;;;14.23;7.30;;;;;;;0.84;74.28;100944.56;4971192;28;20047;-71
2021/03/02 05:50:35;;;;;;;12.45;8.18;;;;;;;0.87;74.20;100942.84;4972126;28;20074;-71
2021/03/02 05:53:02;;;;;;;12.88;7.57;;;;;;;0.90;73.62;100946.34;4987252;28;20034;-71
2021/03/02 05:55:33;;;;;;;17.90;9.75;;;;;;;0.87;73.35;100938.53;4987049;28;20034;-72
2021/03/02 05:57:59;;;;;;;16.52;9.45;;;;;;;0.92;73.87;100939.44;4979671;28;20618;-71
2021/03/02 06:00:25;;;;;;;10.73;6.60;;;;;;;0.95;74.28;100941.19;4974189;28;20061;-71
2021/03/02 06:02:50;;;;;;;17.38;10.32;;;;;;;0.96;73.79;100937.72;4964070;28;20045;-71
2021/03/02 06:05:16;;;;;;;16.25;9.75;;;;;;;0.98;74.10;100936.00;4971521;28;20038;-72
2021/03/02 06:07:42;;;;;;;15.88;10.45;;;;;;;0.96;73.96;100940.31;4971569;28;20046;-71
2021/03/02 06:10:08;;;;;;;20.17;9.88;;;;;;;0.90;73.69;100937.69;4971702;28;20045;-70
2021/03/02 06:12:58;;;;;;;21.17;11.82;;;;;;;0.87;74.23;100933.34;4970896;28;20164;-70
2021/03/02 06:15:25;;;;;;;21.65;12.88;;;;;;;0.87;74.70;100938.53;4968024;28;20038;-70
2021/03/02 06:18:11;;;;;;;24.88;13.10;;;;;;;0.81;74.08;100934.16;4971630;28;20050;-69
2021/03/02 06:20:37;;;;;;;17.67;10.70;;;;;;;0.83;74.46;100940.22;4971367;28;20042;-72
2021/03/02 06:23:19;;;;;;;21.23;12.88;;;;;;;0.81;73.87;100934.16;4969366;28;20050;-71
2021/03/02 06:25:44;;;;;;;21.77;12.82;;;;;;;0.78;74.38;100925.47;4950526;28;20046;-72
2021/03/02 06:28:11;;;;;;;22.50;12.48;;;;;;;0.76;74.87;100924.56;4951668;28;20034;-71
2021/03/02 06:30:37;;;;;;;16.92;9.68;;;;;;;0.81;74.83;100928.06;4950383;28;20460;-71
2021/03/02 06:33:03;;;;;;;18.10;9.95;;;;;;;0.89;74.75;100936.81;4957772;28;20105;-71
2021/03/02 06:35:45;;;;;;;15.68;9.98;;;;;;;0.86;74.81;100931.56;4977972;28;20042;-68
2021/03/02 06:38:11;;;;;;;18.45;10.20;;;;;;;0.88;74.59;100934.19;4990084;28;20332;-69
2021/03/02 06:40:40;;;;;;;16.50;9.55;;;;;;;0.91;74.20;100931.63;4956789;28;20487;-70
2021/03/02 06:43:06;;;;;;;18.85;10.77;;;;;;;0.93;74.13;100928.19;4970761;28;20540;-71
2021/03/02 06:45:31;;;;;;;20.02;12.00;;;;;;;0.95;73.95;100931.66;4969632;28;20085;-71
2021/03/02 06:48:05;;;;;;;18.42;11.43;;;;;;;0.91;73.71;100934.22;4969973;28;20046;-71
2021/03/02 06:50:37;;;;;;;15.93;10.57;;;;;;;0.90;74.03;100935.94;4968699;28;20114;-70
2021/03/02 06:53:09;;;;;;;17.60;12.38;;;;;;;0.91;74.57;100939.41;4970326;28;20038;-70
2021/03/02 06:55:34;;;;;;;18.35;12.18;;;;;;;0.91;74.47;100935.09;4969964;28;20039;-72
2021/03/02 06:58:25;;;;;;;19.30;12.13;;;;;;;0.93;74.68;100941.16;4969609;28;20784;-71
2021/03/02 07:00:55;;;;;;;22.05;12.00;;;;;;;1.12;74.07;100941.31;4966115;28;20533;-69
2021/03/02 07:03:32;;;;;;;18.55;11.95;;;;;;;1.52;72.98;100946.81;4970134;28;20352;-70
2021/03/02 07:06:04;;;;;;;15.85;8.50;;;;;;;1.67;72.05;100942.59;4950092;28;20046;-71
2021/03/02 07:08:30;;;;;;;18.08;9.25;;;;;;;1.75;72.31;100941.72;4950279;28;20042;-69
2021/03/02 07:10:57;;;;;;;13.65;7.97;;;;;;;1.78;72.03;100947.84;4951467;28;20039;-71
2021/03/02 07:13:23;;;;;;;11.23;8.00;;;;;;;1.75;72.31;100946.94;4951358;28;20035;-70
2021/03/02 07:15:53;;;;;;;15.45;10.90;;;;;;;1.74;72.53;100955.59;4951116;28;20118;-71
2021/03/02 07:18:20;;;;;;;16.65;9.57;;;;;;;1.85;72.66;100956.53;4954744;28;20034;-71
2021/03/02 07:20:50;;;;;;;15.93;10.35;;;;;;;1.98;72.31;100954.88;4980353;28;20041;-70
2021/03/02 07:23:21;;;;;;;11.65;8.90;;;;;;;2.05;72.19;100954.03;4968527;28;20066;-69
2021/03/02 07:25:48;;;;;;;11.80;8.07;;;;;;;2.15;72.38;100953.22;4983659;28;20463;-70
2021/03/02 07:28:16;;;;;;;15.93;7.32;;;;;;;2.31;71.83;100948.91;4989668;28;20047;-68
2021/03/02 07:30:44;;;;;;;15.85;8.98;;;;;;;2.46;71.15;100946.38;4989811;28;20419;-71
2021/03/02 07:33:10;;;;;;;15.38;8.52;;;;;;;2.54;71.21;100957.66;4989246;28;20037;-70
2021/03/02 07:35:35;;;;;;;17.33;8.38;;;;;;;2.58;71.11;100943.81;4989189;28;20030;-72
2021/03/02 07:38:15;;;;;;;13.60;7.50;;;;;;;2.70;71.07;100952.50;4982484;28;20100;-72
2021/03/02 07:40:55;;;;;;;13.55;7.70;;;;;;;2.86;71.25;100946.44;4965308;28;20032;-70
2021/03/02 07:43:30;;;;;;;10.30;6.05;;;;;;;3.03;70.73;100949.06;4961491;28;20510;-72
2021/03/02 07:45:56;;;;;;;17.73;9.07;;;;;;;3.10;70.10;100942.09;4989770;28;20102;-69
2021/03/02 07:48:27;;;;;;;13.25;8.88;;;;;;;3.23;70.00;100944.72;4989526;28;20043;-70
2021/03/02 07:51:15;;;;;;;11.98;7.35;;;;;;;3.41;69.69;100945.56;4990080;28;20117;-71
2021/03/02 07:53:41;;;;;;;11.80;7.03;;;;;;;3.54;69.21;100949.00;4980387;28;20042;-71
2021/03/02 07:56:16;;;;;;;10.35;6.95;;;;;;;3.64;68.94;100949.00;4952244;28;20038;-71
2021/03/02 07:58:42;;;;;;;11.60;8.70;;;;;;;3.77;68.87;100951.59;4962396;28;20138;-71
2021/03/02 08:01:23;;;;;;;15.98;10.00;;;;;;;3.91;68.59;100946.31;4970491;28;20035;-71
2021/03/02 08:03:49;;;;;;;13.27;6.97;;;;;;;4.04;68.31;100941.06;4971829;28;20214;-70
2021/03/02 08:06:20;;;;;;;15.85;9.57;;;;;;;4.20;68.14;100951.44;4971859;28;20450;-71
2021/03/02 08:08:47;;;;;;;18.25;8.90;;;;;;;4.27;68.03;100947.91;4969675;28;20043;-69
2021/03/02 08:11:30;;;;;;;18.05;8.65;;;;;;;4.46;67.74;100951.31;4971909;28;20039;-70
2021/03/02 08:13:57;;;;;;;13.70;7.03;;;;;;;4.61;67.40;100948.59;4972942;28;20035;-71
2021/03/02 08:17:00;;;;;;;13.80;7.47;;;;;;;4.81;66.44;100953.69;4971631;28;20054;-71
2021/03/02 08:19:47;;;;;;;13.70;9.15;;;;;;;4.95;66.10;100948.38;4894424;29;20099;-70
2021/03/02 08:22:23;;;;;;;25.17;9.50;;;;;;;5.11;66.24;100959.56;4894084;29;20474;-72
2021/03/02 08:24:52;;;;;;;14.95;7.82;;;;;;;5.27;66.23;100962.94;4933682;28;20061;-72
2021/03/02 08:27:42;;;;;;;18.27;8.65;;;;;;;5.42;65.46;100957.56;4954072;28;20122;-71
2021/03/02 08:30:27;;;;;;;14.60;9.57;;;;;;;5.60;64.98;100967.84;4955303;28;20065;-71
2021/03/02 08:32:54;;;;;;;15.32;9.18;;;;;;;5.76;64.78;100960.72;4954931;28;20054;-72
2021/03/02 08:35:23;;;;;;;17.45;11.43;;;;;;;5.94;64.15;100966.69;4953290;28;20392;-71
2021/03/02 08:37:55;;;;;;;22.00;10.63;;;;;;;6.14;64.14;100971.69;4953507;28;20043;-72
2021/03/02 08:40:40;;;;;;;21.98;11.05;;;;;;;6.33;63.52;100973.19;4953623;28;20031;-71
2021/03/02 08:43:16;;;;;;;14.27;8.97;;;;;;;6.52;63.32;100973.81;4953523;28;20114;-73
2021/03/02 08:45:41;;;;;;;;;;;;;;;6.70;61.96;100977.94;4953364;28;20036;-73
2021/03/02 08:48:34;;;;;;;19.17;10.73;;;;;;;6.89;61.66;100975.91;4956190;28;19926;-70
2021/03/02 08:51:06;;;;;;;22.02;12.10;;;;;;;7.11;61.10;100976.44;4947769;28;20063;-72
2021/03/02 08:53:43;;;;;;;18.80;10.13;;;;;;;7.32;60.83;100983.09;4967182;28;20046;-71
2021/03/02 08:56:15;;;;;;;27.63;14.77;;;;;;;7.53;60.55;100981.84;4959844;28;20495;-71
2021/03/02 08:58:43;;;;;;;53.92;19.90;;;;;;;7.74;59.45;100978.00;4960995;28;20035;-71
2021/03/02 09:01:10;;;;;;;42.58;15.70;;;;;;;7.99;59.11;100978.38;4959236;28;20058;-70
2021/03/02 09:03:38;;;;;;;23.08;11.50;;;;;;;8.27;58.50;100977.84;4954396;28;20058;-70
2021/03/02 09:06:22;;;;;;;34.53;13.02;;;;;;;9.21;56.72;100974.88;4951477;29;20043;-69
2021/03/02 09:08:56;;;;;;;18.92;12.35;;;;;;;10.83;52.30;100965.13;4942387;28;20435;-70
2021/03/02 09:11:30;;;;;;;26.55;13.10;;;;;;;12.13;48.63;100963.38;4952827;29;20038;-69
2021/03/02 09:13:58;;;;;;;28.42;14.07;;;;;;;13.41;44.47;100968.97;4952790;29;20035;-70
2021/03/02 09:16:36;;;;;;;30.27;16.30;;;;;;;14.59;41.81;100963.75;4951286;29;20515;-71
2021/03/02 09:19:05;;;;;;;23.05;13.27;;;;;;;15.69;42.24;100960.13;4935638;29;20183;-71
2021/03/02 09:21:32;;;;;;;19.17;11.02;;;;;;;16.75;40.15;100955.28;4952637;28;20039;-69
2021/03/02 09:23:59;;;;;;;20.73;11.82;;;;;;;17.39;36.38;100957.91;4981799;28;20031;-69
2021/03/02 09:26:29;;;;;;;31.58;13.25;;;;;;;17.93;33.37;100966.22;4986644;28;20046;-51
2021/03/02 09:28:57;;;;;;;25.65;13.07;;;;;;;18.33;32.91;100960.22;4952499;28;20478;-49
2021/03/02 09:31:24;;;;;;;17.73;10.88;;;;;;;19.19;32.09;100960.06;4978493;28;20061;-50
2021/03/02 09:33:50;;;;;;;20.15;12.48;;;;;;;19.94;31.53;100963.88;4963556;28;20042;-71
2021/03/02 09:36:23;;;;;;;28.85;14.20;;;;;;;20.29;30.71;100963.19;4971345;28;20069;-71
2021/03/02 09:38:48;;;;;;;20.95;11.90;;;;;;;20.47;31.46;100960.16;4976061;28;20034;-70
2021/03/02 09:41:31;;;;;;;23.63;11.75;;;;;;;20.89;27.67;100956.19;4990125;28;20523;-70
2021/03/02 09:44:14;;;;;;;20.20;12.90;;;;;;;21.19;28.06;100962.94;4984160;28;20501;-73
2021/03/02 09:46:39;;;;;;;14.25;10.07;;;;;;;21.37;25.92;100958.88;4965880;28;20102;-72
2021/03/02 09:49:04;;;;;;;17.55;11.82;;;;;;;21.67;25.70;100960.22;4986265;28;20052;-71
2021/03/02 09:51:34;;;;;;;19.55;9.07;;;;;;;21.77;25.92;100952.31;4997422;28;20032;-71
2021/03/02 09:54:28;;;;;;;16.42;12.52;;;;;;;21.82;24.45;100948.28;4983821;28;20038;-71
2021/03/02 09:57:01;;;;;;;24.13;17.65;;;;;;;21.91;24.50;100954.78;4966951;28;20542;-71
2021/03/02 09:59:26;;;;;;;19.50;9.57;;;;;;;22.09;24.27;100944.41;4980971;28;20568;-70
2021/03/02 10:01:53;;;;;;;22.73;15.93;;;;;;;22.61;24.74;100952.84;4975081;28;20039;-72
2021/03/02 10:04:19;;;;;;;19.73;13.52;;;;;;;22.88;23.91;100957.78;4980910;28;20073;-71
2021/03/02 10:06:45;;;;;;;15.80;10.43;;;;;;;23.01;23.34;100953.13;4979953;28;20043;-71
2021/03/02 10:09:24;;;;;;;14.90;9.88;;;;;;;23.39;23.10;100942.84;4973040;28;20078;-71
2021/03/02 10:12:13;;;;;;;27.40;11.27;;;;;;;23.42;22.28;100943.44;4970306;28;20106;-71
2021/03/02 10:14:41;;;;;;;18.58;10.18;;;;;;;23.32;22.80;100954.13;4973218;28;20080;-71
2021/03/02 10:17:07;;;;;;;56.72;20.38;;;;;;;23.52;23.06;100944.34;4978328;28;20039;-71
2021/03/02 10:19:34;;;;;;;22.45;11.25;;;;;;;23.70;22.22;100949.13;4969009;28;20545;-71
2021/03/02 10:22:02;;;;;;;18.08;10.88;;;;;;;23.58;21.88;100940.31;4977879;28;20049;-71
2021/03/02 10:24:36;;;;;;;21.95;11.50;;;;;;;23.45;22.55;100953.94;4977167;28;20049;-71
2021/03/02 10:27:15;;;;;;;16.92;9.48;;;;;;;23.29;21.97;100951.69;4968123;28;20044;-70
2021/03/02 10:29:42;;;;;;;23.67;10.23;;;;;;;23.49;22.30;100943.78;4976033;28;20049;-71
2021/03/02 10:32:08;;;;;;;73.88;17.10;;;;;;;23.44;22.47;100946.00;4973370;28;20042;-71
2021/03/02 10:34:35;;;;;;;41.42;15.52;;;;;;;23.51;22.47;100949.88;4976877;28;20044;-71
2021/03/02 10:37:02;;;;;;;15.05;10.63;;;;;;;23.56;21.85;100947.66;4974161;28;20043;-71
2021/03/02 10:39:28;;;;;;;18.27;10.15;;;;;;;23.67;21.84;100954.78;4951558;28;20047;-72
2021/03/02 10:41:53;;;;;;;18.58;11.52;;;;;;;23.69;21.81;100948.28;4951520;28;20028;-71
2021/03/02 10:44:19;;;;;;;16.77;11.00;;;;;;;23.04;22.32;100958.28;4949431;28;20035;-71
2021/03/02 10:46:45;;;;;;;19.55;10.88;;;;;;;22.44;23.55;100954.19;4949265;28;20036;-72
2021/03/02 10:49:11;;;;;;;20.50;10.73;;;;;;;22.11;24.14;100952.34;4951031;29;20496;-72
2021/03/02 10:51:37;;;;;;;18.08;11.38;;;;;;;21.52;24.37;100956.03;4950927;28;20055;-71
2021/03/02 10:54:03;;;;;;;15.13;10.60;;;;;;;21.15;25.15;100954.28;4950388;28;20090;-73
2021/03/02 10:56:29;;;;;;;19.52;11.95;;;;;;;20.57;25.04;100956.72;4951519;29;20058;-71
2021/03/02 10:58:54;;;;;;;16.95;10.65;;;;;;;20.40;25.44;100945.50;4950482;28;20058;-71
2021/03/02 11:01:23;;;;;;;26.40;11.27;;;;;;;20.03;27.28;100942.75;4934150;29;20110;-70
2021/03/02 11:03:49;;;;;;;17.83;10.63;;;;;;;19.74;26.99;100951.03;4952280;29;20054;-71
2021/03/02 11:06:17;;;;;;;20.13;11.43;;;;;;;19.35;27.17;100941.19;4950804;28;20113;-71
2021/03/02 11:08:44;;;;;;;19.05;10.27;;;;;;;19.08;27.58;100952.75;4952142;28;20047;-72
2021/03/02 11:11:11;;;;;;;20.60;9.85;;;;;;;18.79;27.80;100944.84;4952790;28;20043;-71
2021/03/02 11:13:36;;;;;;;21.38;9.95;;;;;;;18.65;28.05;100948.34;4952757;29;20094;-71
2021/03/02 11:16:02;;;;;;;32.83;11.68;;;;;;;18.50;28.92;100940.47;4953545;28;20035;-73
2021/03/02 11:18:27;;;;;;;34.30;12.57;;;;;;;18.34;28.88;100937.94;4951815;28;20127;-70
2021/03/02 11:20:53;;;;;;;32.60;11.23;;;;;;;18.26;28.87;100940.22;4952290;28;20059;-70
2021/03/02 11:23:18;;;;;;;17.23;10.60;;;;;;;18.00;29.28;100943.56;4950393;28;20047;-72
2021/03/02 11:25:44;;;;;;;20.45;8.95;;;;;;;17.94;29.62;100932.41;4950731;28;20066;-72
2021/03/02 11:28:10;;;;;;;15.45;9.77;;;;;;;17.95;29.79;100936.81;4951101;29;20505;-73
2021/03/02 11:30:37;;;;;;;28.08;12.00;;;;;;;17.94;30.00;100938.63;4951137;29;20778;-71